sensor_id;sensor_type;location;lat;lon;timestamp;pressure;altitude;pressure_sealevel;temperature;humidity
45939;BME280;31650;48.818;9.116;2023-02-28T00:09:09;98677.59;;;-4.28;82.89
45939;BME280;31650;48.818;9.116;2023-02-28T00:24:09;98667.34;;;-4.21;85.85
45939;BME280;31650;48.818;9.116;2023-02-28T00:39:09;98663.81;;;-4.09;87.73
45939;BME280;31650;48.818;9.116;2023-02-28T00:54:10;98664.97;;;-4.37;94.85
45939;BME280;31650;48.818;9.116;2023-02-28T01:09:10;98669.38;;;-4.25;96.04
45939;BME280;31650;48.818;9.116;2023-02-28T01:24:10;98649.13;;;-3.78;94.74
45939;BME280;31650;48.818;9.116;2023-02-28T01:39:10;98653.03;;;-3.95;100.00
45939;BME280;31650;48.818;9.116;2023-02-28T01:54:13;98652.47;;;-4.11;100.00
45939;BME280;31650;48.818;9.116;2023-02-28T02:09:15;98649.69;;;-4.46;100.00
45939;BME280;31650;48.818;9.116;2023-02-28T02:54:27;98622.53;;;-3.89;100.00
45939;BME280;31650;48.818;9.116;2023-02-28T03:09:28;98618.13;;;-3.42;100.00
45939;BME280;31650;48.818;9.116;2023-02-28T03:24:40;98618.19;;;-3.19;100.00
45939;BME280;31650;48.818;9.116;2023-02-28T03:39:45;98614.94;;;-3.12;100.00
45939;BME280;31650;48.818;9.116;2023-02-28T03:54:48;98610.47;;;-3.11;100.00
45939;BME280;31650;48.818;9.116;2023-02-28T04:09:50;98623.66;;;-2.98;100.00
45939;BME280;31650;48.818;9.116;2023-02-28T04:24:50;98620.28;;;-2.89;100.00
45939;BME280;31650;48.818;9.116;2023-02-28T04:39:50;98614.50;;;-2.83;100.00
45939;BME280;31650;48.818;9.116;2023-02-28T04:54:50;98611.34;;;-2.77;100.00
45939;BME280;31650;48.818;9.116;2023-02-28T05:09:50;98625.84;;;-2.70;100.00
45939;BME280;31650;48.818;9.116;2023-02-28T05:24:51;98614.25;;;-2.69;100.00
45939;BME280;31650;48.818;9.116;2023-02-28T05:39:51;98622.47;;;-2.61;100.00
45939;BME280;31650;48.818;9.116;2023-02-28T05:54:51;98628.28;;;-2.55;100.00
45939;BME280;31650;48.818;9.116;2023-02-28T06:09:51;98635.06;;;-2.51;100.00
45939;BME280;31650;48.818;9.116;2023-02-28T06:24:51;98641.13;;;-2.49;100.00
45939;BME280;31650;48.818;9.116;2023-02-28T06:39:53;98652.72;;;-2.39;100.00
45939;BME280;31650;48.818;9.116;2023-02-28T07:51:53;98684.38;;;-1.91;94.33
45939;BME280;31650;48.818;9.116;2023-02-28T08:06:53;98693.22;;;-1.79;93.10
45939;BME280;31650;48.818;9.116;2023-02-28T08:21:54;98694.97;;;-1.57;92.22
45939;BME280;31650;48.818;9.116;2023-02-28T08:36:54;98691.53;;;-1.37;90.10
45939;BME280;31650;48.818;9.116;2023-02-28T08:51:54;98695.22;;;-1.28;87.65
45939;BME280;31650;48.818;9.116;2023-02-28T09:06:57;98709.72;;;-0.89;86.74
45939;BME280;31650;48.818;9.116;2023-02-28T09:21:57;98706.03;;;-0.55;84.58
45939;BME280;31650;48.818;9.116;2023-02-28T09:36:57;98719.16;;;-0.12;80.94
45939;BME280;31650;48.818;9.116;2023-02-28T09:51:58;98730.81;;;-0.13;75.62
45939;BME280;31650;48.818;9.116;2023-02-28T10:06:59;98729.03;;;0.48;71.14
45939;BME280;31650;48.818;9.116;2023-02-28T10:22:10;98735.44;;;0.76;69.62
45939;BME280;31650;48.818;9.116;2023-02-28T10:37:12;98745.97;;;1.55;68.15
45939;BME280;31650;48.818;9.116;2023-02-28T10:52:13;98729.94;;;1.92;64.60
45939;BME280;31650;48.818;9.116;2023-02-28T11:07:22;98726.97;;;1.96;63.78
45939;BME280;31650;48.818;9.116;2023-02-28T11:22:26;98714.84;;;1.91;65.39
45939;BME280;31650;48.818;9.116;2023-02-28T11:37:28;98704.91;;;2.75;63.95
45939;BME280;31650;48.818;9.116;2023-02-28T12:07:37;98664.97;;;6.40;52.88
45939;BME280;31650;48.818;9.116;2023-02-28T12:38:08;98653.31;;;6.39;51.35
45939;BME280;31650;48.818;9.116;2023-02-28T13:23:58;98637.22;;;4.44;54.53
45939;BME280;31650;48.818;9.116;2023-02-28T13:39:03;98620.31;;;4.93;54.20
45939;BME280;31650;48.818;9.116;2023-02-28T14:09:24;98631.41;;;4.90;54.30
45939;BME280;31650;48.818;9.116;2023-02-28T14:24:32;98633.88;;;4.59;55.24
45939;BME280;31650;48.818;9.116;2023-02-28T14:39:40;98619.59;;;4.58;54.09
45939;BME280;31650;48.818;9.116;2023-02-28T14:54:41;98630.34;;;4.66;55.22
45939;BME280;31650;48.818;9.116;2023-02-28T15:09:41;98634.69;;;4.35;55.43
45939;BME280;31650;48.818;9.116;2023-02-28T15:24:42;98640.81;;;4.02;56.55
45939;BME280;31650;48.818;9.116;2023-02-28T15:39:43;98639.91;;;3.94;57.56
45939;BME280;31650;48.818;9.116;2023-02-28T15:54:44;98634.28;;;4.13;57.21
45939;BME280;31650;48.818;9.116;2023-02-28T16:09:45;98638.97;;;3.69;58.56
45939;BME280;31650;48.818;9.116;2023-02-28T16:24:47;98655.56;;;3.12;59.71
45939;BME280;31650;48.818;9.116;2023-02-28T16:39:48;98674.25;;;2.32;62.29
45939;BME280;31650;48.818;9.116;2023-02-28T16:54:49;98685.91;;;1.48;65.73
45939;BME280;31650;48.818;9.116;2023-02-28T17:09:50;98702.31;;;1.25;67.92
45939;BME280;31650;48.818;9.116;2023-02-28T17:24:50;98728.97;;;0.98;69.69
45939;BME280;31650;48.818;9.116;2023-02-28T17:39:53;98736.56;;;0.63;71.01
45939;BME280;31650;48.818;9.116;2023-02-28T17:54:56;98747.31;;;0.33;72.78
45939;BME280;31650;48.818;9.116;2023-02-28T18:25:24;98748.97;;;-1.00;85.57
45939;BME280;31650;48.818;9.116;2023-02-28T18:40:31;98761.88;;;-1.72;92.30
45939;BME280;31650;48.818;9.116;2023-02-28T18:55:31;98751.09;;;-1.15;90.15
45939;BME280;31650;48.818;9.116;2023-02-28T19:10:32;98750.56;;;-1.41;90.73
45939;BME280;31650;48.818;9.116;2023-02-28T19:25:32;98756.97;;;-1.99;97.72
45939;BME280;31650;48.818;9.116;2023-02-28T19:40:32;98772.16;;;-2.57;100.00
45939;BME280;31650;48.818;9.116;2023-02-28T19:55:32;98780.56;;;-2.74;100.00
45939;BME280;31650;48.818;9.116;2023-02-28T20:10:33;98774.91;;;-3.05;100.00
45939;BME280;31650;48.818;9.116;2023-02-28T20:25:37;98771.06;;;-3.25;100.00
45939;BME280;31650;48.818;9.116;2023-02-28T20:40:37;98771.47;;;-3.18;100.00
45939;BME280;31650;48.818;9.116;2023-02-28T20:55:37;98764.97;;;-3.14;100.00
45939;BME280;31650;48.818;9.116;2023-02-28T21:10:37;98782.31;;;-3.46;100.00
45939;BME280;31650;48.818;9.116;2023-02-28T21:25:38;98777.41;;;-3.76;100.00
45939;BME280;31650;48.818;9.116;2023-02-28T21:40:38;98769.78;;;-3.56;100.00
45939;BME280;31650;48.818;9.116;2023-02-28T21:55:38;98770.81;;;-3.70;100.00
45939;BME280;31650;48.818;9.116;2023-02-28T22:10:38;98772.03;;;-3.87;100.00
45939;BME280;31650;48.818;9.116;2023-02-28T22:25:38;98769.50;;;-4.14;100.00
45939;BME280;31650;48.818;9.116;2023-02-28T22:40:38;98778.56;;;-4.42;100.00
45939;BME280;31650;48.818;9.116;2023-02-28T22:55:39;98776.53;;;-4.39;100.00
45939;BME280;31650;48.818;9.116;2023-02-28T23:10:40;98775.03;;;-4.43;100.00
45939;BME280;31650;48.818;9.116;2023-02-28T23:25:41;98771.84;;;-4.61;100.00
45939;BME280;31650;48.818;9.116;2023-02-28T23:40:41;98780.53;;;-4.84;100.00
45939;BME280;31650;48.818;9.116;2023-02-28T23:55:45;98773.75;;;-4.76;100.00
